首页
METAR-TAF:

METAR-TAF

机场 :

格勒诺布尔, 法国

纬度: 45-22N, 经度: 005-20E, 海拔: 384米

当前天气观测

该预报发布于42分钟前的20:00 UTC
风速3节,风向多变
温度 3°C
湿度 93%
气压 1005 hPa
能见度10公里或以上
阴天层高于7800英尺

METAR: LFLS 122000Z AUTO VRB03KT 9999 OVC078 03/02 Q1005 TEMPO RA

时间: 21:42 (20:42 UTC)

预报

该预报发布于12小时和42分钟前的08:00 UTC
预报有效从12日的 09点(UTC)到 13日的 09点(UTC)
风速6节,风向北转东北
能见度10公里或以上
1500米以下无云,无积雨云
成为
从 12日的 14点(UTC)到 12日的 16点(UTC)
风速5节,风向北转东北
多云层高于4000英尺
短暂存在
从 12日的 21点(UTC)到 13日的 05点(UTC)
几率 40%
从 13日的 01点(UTC)到 13日的 09点(UTC)
能見度: 6000
多云层高于1400英尺

TAF: LFLS 120800Z 1209/1309 02006KT CAVOK BECMG 1214/1216 02005KT BKN040 TEMPO 1221/1305 RA PROB40 1301/1309 6000 BKN014

超过4000个机场的气象观测和天气预报(METAR&TAF报告)。

可查询的气象台以黄色和红色小点在地图上表示。

将鼠标移到小点上方,可查看气象台名称。

然后点击查看天气观测和预报。

如需切换地图:点击带黑十字的绿色按钮放大地图;点击带横线的绿色按钮缩小地图;或者点击绿色箭头查看邻近地区的地图。


METAR-TAF: